NASA958 KJAC-KFRG
Flight info
| Callsign | NASA958 |
|---|---|
| Flight time | 4h 13m |
| Altitude | 41000 |
| Route | ALPIN4 BPI WUVUT VIVID J82 FSD J16 MCW J90 JIBOR CHPAH ERI HOXIE J70 LVZ |
| Aircraft | E55P/M-SBDFGHJ2RWY/LB2 |
Departure
| Time | 2026-04-25 17:47 |
|---|---|
| Airport | Jackson Hole Airport (KJAC) |
Arrival
| Time | 2026-04-25 22:00 |
|---|---|
| Airport | Republic Airport (KFRG) |
| Time | Latitude | Longitude | Altitude | Speed | Heading |
|---|---|---|---|---|---|
| 2026-04-25 17:19 | 43.59959 | -110.73932 | 6413 ft | 0 kts | 109° |
| 2026-04-25 17:40 | 43.59958 | -110.73924 | 6414 ft | 3 kts | 84° |
| 2026-04-25 17:40 | 43.59986 | -110.73912 | 6414 ft | 5 kts | 319° |
| 2026-04-25 17:41 | 43.60006 | -110.73953 | 6414 ft | 5 kts | 319° |
| 2026-04-25 17:41 | 43.60046 | -110.73951 | 6415 ft | 6 kts | 19° |
| 2026-04-25 17:41 | 43.60099 | -110.73925 | 6416 ft | 9 kts | 19° |
| 2026-04-25 17:41 | 43.60176 | -110.73888 | 6417 ft | 13 kts | 19° |
| 2026-04-25 17:42 | 43.60276 | -110.73840 | 6419 ft | 16 kts | 18° |
| 2026-04-25 17:42 | 43.60392 | -110.73781 | 6423 ft | 18 kts | 14° |
| 2026-04-25 17:42 | 43.60513 | -110.73732 | 6424 ft | 17 kts | 20° |
| 2026-04-25 17:42 | 43.60618 | -110.73675 | 6426 ft | 15 kts | 19° |
| 2026-04-25 17:43 | 43.60706 | -110.73631 | 6429 ft | 12 kts | 20° |
| 2026-04-25 17:43 | 43.60776 | -110.73597 | 6430 ft | 9 kts | 18° |
| 2026-04-25 17:43 | 43.60836 | -110.73568 | 6430 ft | 8 kts | 20° |
| 2026-04-25 17:43 | 43.60895 | -110.73538 | 6431 ft | 10 kts | 19° |
| 2026-04-25 17:44 | 43.60970 | -110.73500 | 6433 ft | 12 kts | 19° |
| 2026-04-25 17:44 | 43.61065 | -110.73453 | 6436 ft | 15 kts | 19° |
| 2026-04-25 17:44 | 43.61181 | -110.73397 | 6437 ft | 20 kts | 19° |
| 2026-04-25 17:44 | 43.61314 | -110.73333 | 6440 ft | 17 kts | 20° |
| 2026-04-25 17:45 | 43.61419 | -110.73283 | 6443 ft | 14 kts | 19° |
| 2026-04-25 17:45 | 43.61479 | -110.73257 | 6444 ft | 12 kts | 5° |
| 2026-04-25 17:45 | 43.61526 | -110.73373 | 6443 ft | 11 kts | 249° |
| 2026-04-25 17:45 | 43.61441 | -110.73431 | 6440 ft | 25 kts | 199° |
| 2026-04-25 17:46 | 43.61021 | -110.73635 | 6432 ft | 100 kts | 198° |
| 2026-04-25 17:46 | 43.60169 | -110.74049 | 6464 ft | 151 kts | 201° |
| 2026-04-25 17:46 | 43.59052 | -110.74618 | 6750 ft | 188 kts | 199° |
| 2026-04-25 17:46 | 43.57652 | -110.75250 | 6943 ft | 231 kts | 200° |
| 2026-04-25 17:47 | 43.56244 | -110.76251 | 7960 ft | 232 kts | 211° |
| 2026-04-25 17:47 | 43.54885 | -110.77329 | 9175 ft | 223 kts | 208° |
| 2026-04-25 17:47 | 43.53539 | -110.78226 | 10119 ft | 220 kts | 206° |
| 2026-04-25 17:47 | 43.52143 | -110.79149 | 10872 ft | 226 kts | 206° |
| 2026-04-25 17:48 | 43.49266 | -110.81029 | 12540 ft | 233 kts | 206° |
| 2026-04-25 17:48 | 43.47837 | -110.81958 | 13486 ft | 232 kts | 206° |
| 2026-04-25 17:48 | 43.46390 | -110.82900 | 14383 ft | 233 kts | 207° |
| 2026-04-25 17:49 | 43.44933 | -110.83842 | 15229 ft | 235 kts | 208° |
| 2026-04-25 17:49 | 43.43456 | -110.84802 | 16062 ft | 236 kts | 210° |
| 2026-04-25 17:49 | 43.41979 | -110.85764 | 16860 ft | 238 kts | 211° |
| 2026-04-25 17:49 | 43.40492 | -110.86729 | 17678 ft | 238 kts | 211° |
| 2026-04-25 17:50 | 43.39007 | -110.87698 | 18457 ft | 239 kts | 212° |
| 2026-04-25 17:50 | 43.37517 | -110.88668 | 19243 ft | 240 kts | 212° |
| 2026-04-25 17:50 | 43.36013 | -110.89645 | 19969 ft | 243 kts | 212° |
| 2026-04-25 17:50 | 43.34494 | -110.90633 | 20757 ft | 243 kts | 212° |
| 2026-04-25 17:51 | 43.32957 | -110.91628 | 21460 ft | 246 kts | 213° |
| 2026-04-25 17:51 | 43.31428 | -110.92618 | 22211 ft | 246 kts | 213° |
| 2026-04-25 17:51 | 43.29872 | -110.93629 | 22936 ft | 248 kts | 213° |
| 2026-04-25 17:51 | 43.28307 | -110.94639 | 23647 ft | 249 kts | 214° |
| 2026-04-25 17:52 | 43.26757 | -110.95645 | 24258 ft | 253 kts | 213° |
| 2026-04-25 17:52 | 43.25689 | -110.96336 | 24708 ft | 254 kts | 213° |
| 2026-04-25 17:52 | 43.23552 | -110.97708 | 25595 ft | 257 kts | 211° |
| 2026-04-25 17:52 | 43.21719 | -110.98029 | 26089 ft | 290 kts | 180° |
| 2026-04-25 17:53 | 43.19810 | -110.96837 | 26678 ft | 321 kts | 150° |
| 2026-04-25 17:53 | 43.18367 | -110.94321 | 27187 ft | 342 kts | 131° |
| 2026-04-25 17:53 | 43.16859 | -110.91835 | 27640 ft | 336 kts | 144° |
| 2026-04-25 17:53 | 43.15249 | -110.89562 | 28171 ft | 338 kts | 145° |
| 2026-04-25 17:54 | 43.13590 | -110.87254 | 28751 ft | 339 kts | 145° |
| 2026-04-25 17:54 | 43.11934 | -110.84946 | 29265 ft | 342 kts | 146° |
| 2026-04-25 17:54 | 43.10259 | -110.82629 | 29733 ft | 346 kts | 146° |
| 2026-04-25 17:54 | 43.08552 | -110.80261 | 30199 ft | 349 kts | 146° |
| 2026-04-25 17:55 | 43.06851 | -110.77898 | 30730 ft | 350 kts | 146° |
| 2026-04-25 17:55 | 43.05132 | -110.75522 | 31295 ft | 348 kts | 145° |
| 2026-04-25 17:55 | 43.03441 | -110.73183 | 31837 ft | 346 kts | 146° |
| 2026-04-25 17:55 | 43.01769 | -110.70868 | 32294 ft | 347 kts | 145° |
| 2026-04-25 17:56 | 43.00063 | -110.68513 | 32731 ft | 348 kts | 145° |
| 2026-04-25 17:56 | 42.98369 | -110.66177 | 33195 ft | 348 kts | 144° |
| 2026-04-25 17:56 | 42.96686 | -110.63856 | 33630 ft | 348 kts | 144° |
| 2026-04-25 17:56 | 42.94974 | -110.61498 | 33999 ft | 349 kts | 144° |
| 2026-04-25 17:57 | 42.93280 | -110.59162 | 34360 ft | 349 kts | 144° |
| 2026-04-25 17:57 | 42.91566 | -110.56805 | 34729 ft | 349 kts | 144° |
| 2026-04-25 17:57 | 42.89867 | -110.54470 | 35082 ft | 347 kts | 144° |
| 2026-04-25 17:57 | 42.88751 | -110.52932 | 35322 ft | 346 kts | 144° |
| 2026-04-25 17:58 | 42.86496 | -110.49836 | 35799 ft | 345 kts | 143° |
| 2026-04-25 17:58 | 42.84802 | -110.47510 | 36202 ft | 342 kts | 144° |
| 2026-04-25 17:58 | 42.83138 | -110.45229 | 36559 ft | 340 kts | 143° |
| 2026-04-25 17:58 | 42.81490 | -110.42975 | 36849 ft | 340 kts | 143° |
| 2026-04-25 17:59 | 42.79810 | -110.40682 | 37103 ft | 341 kts | 143° |
| 2026-04-25 17:59 | 42.78147 | -110.38403 | 37387 ft | 341 kts | 143° |
| 2026-04-25 17:59 | 42.76473 | -110.36120 | 37620 ft | 343 kts | 143° |
| 2026-04-25 17:59 | 42.74791 | -110.33823 | 37894 ft | 342 kts | 144° |
| 2026-04-25 18:00 | 42.73111 | -110.31527 | 38089 ft | 341 kts | 144° |
| 2026-04-25 18:00 | 42.71452 | -110.29269 | 38336 ft | 341 kts | 144° |
| 2026-04-25 18:00 | 42.69767 | -110.26976 | 38591 ft | 341 kts | 144° |
| 2026-04-25 18:00 | 42.68090 | -110.24695 | 38803 ft | 341 kts | 144° |
| 2026-04-25 18:01 | 42.66420 | -110.22421 | 39002 ft | 342 kts | 144° |
| 2026-04-25 18:01 | 42.64734 | -110.20138 | 39262 ft | 341 kts | 144° |
| 2026-04-25 18:01 | 42.63067 | -110.17867 | 39504 ft | 339 kts | 144° |
| 2026-04-25 18:01 | 42.61391 | -110.15600 | 39682 ft | 340 kts | 144° |
| 2026-04-25 18:02 | 42.59793 | -110.13258 | 39836 ft | 349 kts | 129° |
| 2026-04-25 18:02 | 42.58893 | -110.10156 | 39934 ft | 365 kts | 99° |
| 2026-04-25 18:02 | 42.59066 | -110.06709 | 40042 ft | 368 kts | 69° |
| 2026-04-25 18:02 | 42.60259 | -110.03711 | 40171 ft | 362 kts | 51° |
| 2026-04-25 18:03 | 42.61623 | -110.00795 | 40295 ft | 366 kts | 58° |
| 2026-04-25 18:03 | 42.62821 | -109.97781 | 40450 ft | 367 kts | 59° |
| 2026-04-25 18:03 | 42.64001 | -109.94678 | 40645 ft | 366 kts | 60° |
| 2026-04-25 18:03 | 42.65151 | -109.91619 | 40881 ft | 364 kts | 60° |
| 2026-04-25 18:04 | 42.66288 | -109.88574 | 41100 ft | 362 kts | 60° |
| 2026-04-25 18:04 | 42.67408 | -109.85563 | 41263 ft | 361 kts | 60° |
| 2026-04-25 18:04 | 42.68547 | -109.82494 | 41399 ft | 361 kts | 60° |
| 2026-04-25 18:04 | 42.69665 | -109.79484 | 41544 ft | 361 kts | 60° |
| 2026-04-25 18:05 | 42.70799 | -109.76419 | 41703 ft | 360 kts | 60° |
| 2026-04-25 18:05 | 42.71923 | -109.73379 | 41868 ft | 359 kts | 60° |
| 2026-04-25 18:05 | 42.73029 | -109.70387 | 42012 ft | 359 kts | 60° |
| 2026-04-25 18:05 | 42.74153 | -109.67343 | 42152 ft | 359 kts | 60° |
| 2026-04-25 18:06 | 42.75266 | -109.64320 | 42287 ft | 358 kts | 60° |
| 2026-04-25 18:06 | 42.76379 | -109.61301 | 42428 ft | 357 kts | 60° |
| 2026-04-25 18:06 | 42.77491 | -109.58284 | 42569 ft | 357 kts | 60° |
| 2026-04-25 18:06 | 42.78594 | -109.55282 | 42718 ft | 356 kts | 60° |
| 2026-04-25 18:07 | 42.79689 | -109.52298 | 42856 ft | 355 kts | 60° |
| 2026-04-25 18:07 | 42.81924 | -109.46207 | 42877 ft | 364 kts | 61° |
| 2026-04-25 18:08 | 42.84210 | -109.39959 | 42836 ft | 375 kts | 60° |
| 2026-04-25 18:08 | 42.86544 | -109.33558 | 42811 ft | 385 kts | 61° |
| 2026-04-25 18:09 | 42.88955 | -109.26936 | 42789 ft | 395 kts | 62° |
| 2026-04-25 18:09 | 42.91423 | -109.20141 | 42807 ft | 405 kts | 62° |
| 2026-04-25 18:10 | 42.93935 | -109.13209 | 42845 ft | 413 kts | 62° |
| 2026-04-25 18:10 | 42.96498 | -109.06123 | 42896 ft | 421 kts | 62° |
| 2026-04-25 18:11 | 42.99092 | -108.98925 | 42934 ft | 430 kts | 62° |
| 2026-04-25 18:11 | 43.01747 | -108.91550 | 42943 ft | 439 kts | 62° |
| 2026-04-25 18:12 | 43.04461 | -108.83973 | 42944 ft | 448 kts | 62° |
| 2026-04-25 18:12 | 43.07206 | -108.76295 | 42954 ft | 452 kts | 62° |
| 2026-04-25 18:13 | 43.09948 | -108.68608 | 42953 ft | 450 kts | 62° |
| 2026-04-25 18:13 | 43.12673 | -108.60947 | 42960 ft | 448 kts | 62° |
| 2026-04-25 18:14 | 43.16732 | -108.49490 | 42952 ft | 445 kts | 62° |
| 2026-04-25 18:14 | 43.19402 | -108.41930 | 42955 ft | 444 kts | 62° |
| 2026-04-25 18:15 | 43.22092 | -108.34301 | 42940 ft | 442 kts | 63° |
| 2026-04-25 18:15 | 43.24757 | -108.26717 | 42947 ft | 441 kts | 63° |
| 2026-04-25 18:16 | 43.27385 | -108.19209 | 42930 ft | 439 kts | 63° |
| 2026-04-25 18:17 | 43.31332 | -108.07904 | 42920 ft | 438 kts | 63° |
| 2026-04-25 18:17 | 43.33939 | -108.00409 | 42903 ft | 436 kts | 63° |
| 2026-04-25 18:18 | 43.36549 | -107.92889 | 42903 ft | 435 kts | 63° |
| 2026-04-25 18:18 | 43.39138 | -107.85410 | 42902 ft | 434 kts | 63° |
| 2026-04-25 18:19 | 43.41722 | -107.77924 | 42910 ft | 433 kts | 63° |
| 2026-04-25 18:19 | 43.44277 | -107.70489 | 42909 ft | 432 kts | 63° |
| 2026-04-25 18:20 | 43.46829 | -107.63056 | 42906 ft | 431 kts | 63° |
| 2026-04-25 18:20 | 43.49394 | -107.55559 | 42897 ft | 431 kts | 63° |
| 2026-04-25 18:21 | 43.51936 | -107.48115 | 42912 ft | 430 kts | 63° |
| 2026-04-25 18:21 | 43.54465 | -107.40691 | 42899 ft | 430 kts | 63° |
| 2026-04-25 18:22 | 43.56992 | -107.33246 | 42887 ft | 430 kts | 64° |
| 2026-04-25 18:22 | 43.59519 | -107.25777 | 42882 ft | 429 kts | 64° |
| 2026-04-25 18:23 | 43.62022 | -107.18361 | 42889 ft | 428 kts | 64° |
| 2026-04-25 18:23 | 43.64522 | -107.10934 | 42916 ft | 426 kts | 64° |
| 2026-04-25 18:24 | 43.66999 | -107.03555 | 42923 ft | 426 kts | 64° |
| 2026-04-25 18:24 | 43.69481 | -106.96143 | 42937 ft | 425 kts | 64° |
| 2026-04-25 18:25 | 43.71949 | -106.88755 | 42956 ft | 424 kts | 64° |
| 2026-04-25 18:25 | 43.74401 | -106.81389 | 42977 ft | 424 kts | 64° |
| 2026-04-25 18:26 | 43.76860 | -106.73988 | 42996 ft | 423 kts | 64° |
| 2026-04-25 18:26 | 43.79304 | -106.66602 | 43004 ft | 423 kts | 64° |
| 2026-04-25 18:27 | 43.81742 | -106.59227 | 43009 ft | 423 kts | 65° |
| 2026-04-25 18:27 | 43.84172 | -106.51842 | 43013 ft | 423 kts | 65° |
| 2026-04-25 18:28 | 43.86595 | -106.44462 | 43016 ft | 422 kts | 65° |
| 2026-04-25 18:28 | 43.89018 | -106.37061 | 43014 ft | 422 kts | 64° |
| 2026-04-25 18:29 | 43.92638 | -106.25972 | 43004 ft | 422 kts | 65° |
| 2026-04-25 18:30 | 43.97438 | -106.11194 | 43004 ft | 423 kts | 65° |
| 2026-04-25 18:30 | 43.99839 | -106.03764 | 42999 ft | 425 kts | 65° |
| 2026-04-25 18:31 | 44.02271 | -105.96229 | 42982 ft | 427 kts | 66° |
| 2026-04-25 18:31 | 44.04685 | -105.88717 | 42993 ft | 428 kts | 66° |
| 2026-04-25 18:32 | 44.07116 | -105.81130 | 42970 ft | 430 kts | 66° |
| 2026-04-25 18:32 | 44.09537 | -105.73559 | 42981 ft | 432 kts | 65° |
| 2026-04-25 18:33 | 44.11973 | -105.65926 | 42977 ft | 433 kts | 66° |
| 2026-04-25 18:33 | 44.14393 | -105.58312 | 42974 ft | 434 kts | 65° |
| 2026-04-25 18:34 | 44.16842 | -105.50581 | 42992 ft | 436 kts | 65° |
| 2026-04-25 18:34 | 44.19279 | -105.42875 | 42996 ft | 437 kts | 66° |
| 2026-04-25 18:35 | 44.21713 | -105.35145 | 42986 ft | 438 kts | 65° |
| 2026-04-25 18:35 | 44.24020 | -105.27307 | 42961 ft | 438 kts | 80° |
| 2026-04-25 18:36 | 44.24212 | -105.23189 | 43026 ft | 432 kts | 95° |
| 2026-04-25 18:36 | 44.24036 | -105.18993 | 42999 ft | 433 kts | 96° |
| 2026-04-25 18:36 | 44.23638 | -105.10661 | 42996 ft | 434 kts | 96° |
| 2026-04-25 18:37 | 44.23208 | -105.02234 | 42983 ft | 436 kts | 97° |
| 2026-04-25 18:37 | 44.22777 | -104.93866 | 42987 ft | 437 kts | 96° |
| 2026-04-25 18:38 | 44.22331 | -104.85420 | 42992 ft | 438 kts | 96° |
| 2026-04-25 18:38 | 44.21883 | -104.76999 | 42998 ft | 439 kts | 97° |
| 2026-04-25 18:39 | 44.21419 | -104.68467 | 42997 ft | 440 kts | 96° |
| 2026-04-25 18:39 | 44.20956 | -104.59998 | 42995 ft | 442 kts | 96° |
| 2026-04-25 18:40 | 44.20484 | -104.51500 | 42994 ft | 443 kts | 96° |
| 2026-04-25 18:40 | 44.20001 | -104.42948 | 42983 ft | 444 kts | 96° |
| 2026-04-25 18:41 | 44.19511 | -104.34365 | 42978 ft | 446 kts | 97° |
| 2026-04-25 18:41 | 44.19016 | -104.25789 | 42965 ft | 448 kts | 97° |
| 2026-04-25 18:42 | 44.18595 | -104.18591 | 42944 ft | 448 kts | 97° |
| 2026-04-25 18:42 | 44.17995 | -104.08479 | 42937 ft | 450 kts | 97° |
| 2026-04-25 18:43 | 44.17476 | -103.99835 | 42905 ft | 451 kts | 97° |
| 2026-04-25 18:43 | 44.16946 | -103.91135 | 42912 ft | 452 kts | 97° |
| 2026-04-25 18:44 | 44.16410 | -103.82457 | 42906 ft | 452 kts | 96° |
| 2026-04-25 18:44 | 44.15867 | -103.73731 | 42923 ft | 453 kts | 97° |
| 2026-04-25 18:45 | 44.15313 | -103.65025 | 42951 ft | 452 kts | 96° |
| 2026-04-25 18:45 | 44.14759 | -103.56338 | 42957 ft | 452 kts | 96° |
| 2026-04-25 18:46 | 44.14199 | -103.47676 | 42992 ft | 451 kts | 96° |
| 2026-04-25 18:46 | 44.13630 | -103.39003 | 43016 ft | 451 kts | 96° |
| 2026-04-25 18:47 | 44.13052 | -103.30306 | 43021 ft | 450 kts | 97° |
| 2026-04-25 18:47 | 44.12474 | -103.21661 | 43035 ft | 448 kts | 97° |
| 2026-04-25 18:48 | 44.11894 | -103.13100 | 43038 ft | 446 kts | 97° |
| 2026-04-25 18:48 | 44.11304 | -103.04535 | 43044 ft | 445 kts | 97° |
| 2026-04-25 18:49 | 44.10714 | -102.96003 | 43049 ft | 443 kts | 97° |
| 2026-04-25 18:49 | 44.10117 | -102.87485 | 43056 ft | 443 kts | 97° |
| 2026-04-25 18:50 | 44.09513 | -102.78963 | 43048 ft | 443 kts | 97° |
| 2026-04-25 18:50 | 44.08905 | -102.70470 | 43050 ft | 443 kts | 97° |
| 2026-04-25 18:51 | 44.08393 | -102.63394 | 43058 ft | 443 kts | 97° |
| 2026-04-25 18:51 | 44.07673 | -102.53515 | 43054 ft | 444 kts | 97° |
| 2026-04-25 18:52 | 44.07045 | -102.45014 | 43060 ft | 444 kts | 97° |
| 2026-04-25 18:52 | 44.06404 | -102.36433 | 43055 ft | 445 kts | 97° |
| 2026-04-25 18:53 | 44.05763 | -102.27929 | 43053 ft | 445 kts | 98° |
| 2026-04-25 18:53 | 44.05110 | -102.19370 | 43042 ft | 446 kts | 98° |
| 2026-04-25 18:54 | 44.04125 | -102.06573 | 43054 ft | 446 kts | 98° |
| 2026-04-25 18:55 | 44.03455 | -101.98039 | 43052 ft | 446 kts | 98° |
| 2026-04-25 18:55 | 44.02788 | -101.89550 | 43067 ft | 446 kts | 98° |
| 2026-04-25 18:56 | 44.02106 | -101.80971 | 43069 ft | 446 kts | 98° |
| 2026-04-25 18:56 | 44.01421 | -101.72457 | 43081 ft | 446 kts | 98° |
| 2026-04-25 18:57 | 44.00729 | -101.63917 | 43080 ft | 446 kts | 98° |
| 2026-04-25 18:57 | 44.00032 | -101.55401 | 43091 ft | 446 kts | 98° |
| 2026-04-25 18:58 | 43.99325 | -101.46857 | 43072 ft | 446 kts | 98° |
| 2026-04-25 18:58 | 43.98254 | -101.34058 | 43070 ft | 447 kts | 98° |
| 2026-04-25 18:59 | 43.96797 | -101.16901 | 43061 ft | 448 kts | 99° |
| 2026-04-25 19:00 | 43.95690 | -101.04057 | 43069 ft | 449 kts | 99° |
| 2026-04-25 19:01 | 43.94563 | -100.91177 | 43052 ft | 450 kts | 99° |
| 2026-04-25 19:01 | 43.93805 | -100.82603 | 43060 ft | 450 kts | 99° |
| 2026-04-25 19:02 | 43.92656 | -100.69736 | 43062 ft | 451 kts | 99° |
| 2026-04-25 19:03 | 43.91613 | -100.58201 | 43075 ft | 452 kts | 99° |
| 2026-04-25 19:03 | 43.90691 | -100.48143 | 43070 ft | 453 kts | 99° |
| 2026-04-25 19:04 | 43.89492 | -100.35172 | 43080 ft | 455 kts | 99° |
| 2026-04-25 19:05 | 43.87866 | -100.17845 | 43077 ft | 456 kts | 99° |
| 2026-04-25 19:06 | 43.87038 | -100.09129 | 43081 ft | 456 kts | 99° |
| 2026-04-25 19:06 | 43.85944 | -99.96040 | 43087 ft | 459 kts | 92° |
| 2026-04-25 19:07 | 43.85219 | -99.82941 | 43085 ft | 458 kts | 96° |
| 2026-04-25 19:08 | 43.84509 | -99.69726 | 43088 ft | 459 kts | 96° |
| 2026-04-25 19:09 | 43.83625 | -99.53617 | 43089 ft | 460 kts | 96° |
| 2026-04-25 19:10 | 43.82796 | -99.38902 | 43089 ft | 461 kts | 96° |
| 2026-04-25 19:10 | 43.82293 | -99.30072 | 43080 ft | 461 kts | 96° |
| 2026-04-25 19:11 | 43.81781 | -99.21279 | 43075 ft | 461 kts | 96° |
| 2026-04-25 19:11 | 43.81261 | -99.12459 | 43070 ft | 461 kts | 96° |
| 2026-04-25 19:12 | 43.80736 | -99.03637 | 43071 ft | 461 kts | 96° |
| 2026-04-25 19:12 | 43.80203 | -98.94809 | 43068 ft | 461 kts | 96° |
| 2026-04-25 19:13 | 43.79664 | -98.86020 | 43068 ft | 461 kts | 96° |
| 2026-04-25 19:13 | 43.79116 | -98.77171 | 43069 ft | 460 kts | 96° |
| 2026-04-25 19:14 | 43.78565 | -98.68379 | 43075 ft | 460 kts | 96° |
| 2026-04-25 19:14 | 43.78007 | -98.59598 | 43076 ft | 460 kts | 96° |
| 2026-04-25 19:15 | 43.77440 | -98.50764 | 43077 ft | 460 kts | 96° |
| 2026-04-25 19:15 | 43.76869 | -98.41994 | 43083 ft | 460 kts | 96° |
| 2026-04-25 19:16 | 43.76292 | -98.33211 | 43078 ft | 460 kts | 97° |
| 2026-04-25 19:16 | 43.75709 | -98.24466 | 43076 ft | 459 kts | 97° |
| 2026-04-25 19:17 | 43.75118 | -98.15696 | 43093 ft | 458 kts | 97° |
| 2026-04-25 19:17 | 43.74524 | -98.07008 | 43098 ft | 457 kts | 97° |
| 2026-04-25 19:18 | 43.73922 | -97.98267 | 43089 ft | 456 kts | 97° |
| 2026-04-25 19:18 | 43.73318 | -97.89606 | 43094 ft | 456 kts | 97° |
| 2026-04-25 19:19 | 43.72712 | -97.81001 | 43091 ft | 455 kts | 97° |
| 2026-04-25 19:19 | 43.72095 | -97.72356 | 43072 ft | 456 kts | 97° |
| 2026-04-25 19:20 | 43.71471 | -97.63666 | 43072 ft | 456 kts | 97° |
| 2026-04-25 19:20 | 43.70834 | -97.54934 | 43056 ft | 457 kts | 97° |
| 2026-04-25 19:21 | 43.70191 | -97.46198 | 43064 ft | 457 kts | 97° |
| 2026-04-25 19:21 | 43.69219 | -97.33165 | 43048 ft | 458 kts | 98° |
| 2026-04-25 19:22 | 43.68563 | -97.24473 | 43051 ft | 458 kts | 98° |
| 2026-04-25 19:23 | 43.67562 | -97.11381 | 43037 ft | 458 kts | 98° |
| 2026-04-25 19:23 | 43.66546 | -96.98301 | 43030 ft | 459 kts | 98° |
| 2026-04-25 19:24 | 43.65864 | -96.89621 | 43045 ft | 458 kts | 98° |
| 2026-04-25 19:25 | 43.64101 | -96.72279 | 43043 ft | 457 kts | 103° |
| 2026-04-25 19:25 | 43.62863 | -96.63735 | 43039 ft | 457 kts | 103° |
| 2026-04-25 19:26 | 43.61609 | -96.55147 | 43038 ft | 457 kts | 103° |
| 2026-04-25 19:26 | 43.60358 | -96.46622 | 43045 ft | 457 kts | 103° |
| 2026-04-25 19:27 | 43.59299 | -96.39456 | 43036 ft | 458 kts | 103° |
| 2026-04-25 19:27 | 43.57819 | -96.29488 | 43036 ft | 458 kts | 104° |
| 2026-04-25 19:28 | 43.56533 | -96.20879 | 43025 ft | 458 kts | 104° |
| 2026-04-25 19:28 | 43.55253 | -96.12326 | 43030 ft | 458 kts | 104° |
| 2026-04-25 19:29 | 43.53959 | -96.03756 | 43023 ft | 459 kts | 104° |
| 2026-04-25 19:29 | 43.52649 | -95.95132 | 43016 ft | 460 kts | 104° |
| 2026-04-25 19:30 | 43.51344 | -95.86574 | 43011 ft | 461 kts | 104° |
| 2026-04-25 19:30 | 43.50017 | -95.77918 | 43009 ft | 462 kts | 104° |
| 2026-04-25 19:31 | 43.48689 | -95.69315 | 43012 ft | 462 kts | 103° |
| 2026-04-25 19:31 | 43.47353 | -95.60679 | 43007 ft | 463 kts | 103° |
| 2026-04-25 19:32 | 43.46002 | -95.52014 | 42999 ft | 463 kts | 103° |
| 2026-04-25 19:32 | 43.44884 | -95.44872 | 43006 ft | 464 kts | 103° |
| 2026-04-25 19:33 | 43.43290 | -95.34735 | 43006 ft | 464 kts | 104° |
| 2026-04-25 19:33 | 43.41924 | -95.26115 | 42997 ft | 465 kts | 104° |
| 2026-04-25 19:34 | 43.40543 | -95.17459 | 43001 ft | 465 kts | 104° |
| 2026-04-25 19:34 | 43.39157 | -95.08800 | 43007 ft | 465 kts | 104° |
| 2026-04-25 19:35 | 43.37760 | -95.00138 | 43008 ft | 465 kts | 104° |
| 2026-04-25 19:35 | 43.36373 | -94.91562 | 43010 ft | 465 kts | 104° |
| 2026-04-25 19:36 | 43.34964 | -94.82896 | 43026 ft | 466 kts | 104° |
| 2026-04-25 19:36 | 43.33548 | -94.74236 | 43026 ft | 466 kts | 104° |
| 2026-04-25 19:37 | 43.32117 | -94.65537 | 43020 ft | 467 kts | 104° |
| 2026-04-25 19:37 | 43.30692 | -94.56898 | 43015 ft | 468 kts | 104° |
| 2026-04-25 19:38 | 43.29246 | -94.48187 | 43023 ft | 469 kts | 104° |
| 2026-04-25 19:38 | 43.27799 | -94.39494 | 43015 ft | 470 kts | 104° |
| 2026-04-25 19:39 | 43.26346 | -94.30801 | 43008 ft | 472 kts | 105° |
| 2026-04-25 19:39 | 43.24873 | -94.22041 | 43000 ft | 472 kts | 105° |
| 2026-04-25 19:40 | 43.23390 | -94.13277 | 43001 ft | 472 kts | 105° |
| 2026-04-25 19:40 | 43.21917 | -94.04611 | 42998 ft | 469 kts | 105° |
| 2026-04-25 19:41 | 43.20434 | -93.95920 | 42999 ft | 467 kts | 105° |
| 2026-04-25 19:41 | 43.19206 | -93.88758 | 43002 ft | 465 kts | 105° |
| 2026-04-25 19:42 | 43.17480 | -93.78740 | 43015 ft | 463 kts | 105° |
| 2026-04-25 19:42 | 43.16006 | -93.70217 | 43011 ft | 461 kts | 105° |
| 2026-04-25 19:43 | 43.14526 | -93.61727 | 43000 ft | 460 kts | 104° |
| 2026-04-25 19:43 | 43.13041 | -93.53228 | 43008 ft | 459 kts | 105° |
| 2026-04-25 19:44 | 43.11557 | -93.44785 | 43005 ft | 458 kts | 104° |
| 2026-04-25 19:44 | 43.10064 | -93.36314 | 43016 ft | 458 kts | 105° |
| 2026-04-25 19:45 | 43.09128 | -93.27729 | 43024 ft | 458 kts | 96° |
| 2026-04-25 19:45 | 43.08576 | -93.19122 | 43003 ft | 457 kts | 96° |
| 2026-04-25 19:46 | 43.08010 | -93.10503 | 42992 ft | 457 kts | 96° |
| 2026-04-25 19:46 | 43.07437 | -93.01890 | 42998 ft | 457 kts | 96° |
| 2026-04-25 19:47 | 43.06856 | -92.93250 | 42984 ft | 457 kts | 96° |
| 2026-04-25 19:47 | 43.06273 | -92.84661 | 42994 ft | 455 kts | 96° |
| 2026-04-25 19:48 | 43.05680 | -92.76063 | 43000 ft | 454 kts | 96° |
| 2026-04-25 19:48 | 43.05082 | -92.67445 | 43010 ft | 454 kts | 96° |
| 2026-04-25 19:49 | 43.04583 | -92.60355 | 43007 ft | 453 kts | 96° |
| 2026-04-25 19:49 | 43.03869 | -92.50328 | 43005 ft | 453 kts | 96° |
| 2026-04-25 19:50 | 43.02947 | -92.37509 | 42996 ft | 453 kts | 96° |
| 2026-04-25 19:51 | 43.02330 | -92.29071 | 42991 ft | 452 kts | 97° |
| 2026-04-25 19:51 | 43.01699 | -92.20501 | 42979 ft | 452 kts | 97° |
| 2026-04-25 19:52 | 43.01066 | -92.12000 | 42986 ft | 452 kts | 97° |
| 2026-04-25 19:52 | 43.00426 | -92.03500 | 42979 ft | 451 kts | 97° |
| 2026-04-25 19:53 | 42.99781 | -91.95005 | 42983 ft | 451 kts | 97° |
| 2026-04-25 19:53 | 42.99131 | -91.86520 | 42993 ft | 450 kts | 97° |
| 2026-04-25 19:54 | 42.98469 | -91.78013 | 42994 ft | 450 kts | 97° |
| 2026-04-25 19:54 | 42.97807 | -91.69542 | 42990 ft | 450 kts | 97° |
| 2026-04-25 19:55 | 42.97138 | -91.61059 | 42996 ft | 450 kts | 97° |
| 2026-04-25 19:55 | 42.96463 | -91.52599 | 42994 ft | 450 kts | 97° |
| 2026-04-25 19:56 | 42.95779 | -91.44117 | 42992 ft | 450 kts | 97° |
| 2026-04-25 19:56 | 42.95098 | -91.35737 | 42994 ft | 450 kts | 97° |
| 2026-04-25 19:57 | 42.94427 | -91.27570 | 42998 ft | 449 kts | 97° |
| 2026-04-25 19:57 | 42.93727 | -91.19116 | 43006 ft | 449 kts | 97° |
| 2026-04-25 19:58 | 42.93025 | -91.10691 | 43010 ft | 449 kts | 98° |
| 2026-04-25 19:58 | 42.92316 | -91.02294 | 43009 ft | 449 kts | 97° |
| 2026-04-25 19:59 | 42.91603 | -90.93919 | 43008 ft | 449 kts | 97° |
| 2026-04-25 19:59 | 42.90881 | -90.85499 | 43026 ft | 449 kts | 97° |
| 2026-04-25 20:00 | 42.90152 | -90.77072 | 43016 ft | 449 kts | 97° |
| 2026-04-25 20:00 | 42.89420 | -90.68687 | 43023 ft | 449 kts | 97° |
| 2026-04-25 20:01 | 42.88303 | -90.56028 | 43026 ft | 449 kts | 97° |
| 2026-04-25 20:01 | 42.87546 | -90.47552 | 43017 ft | 450 kts | 97° |
| 2026-04-25 20:02 | 42.86788 | -90.39138 | 43019 ft | 450 kts | 97° |
| 2026-04-25 20:02 | 42.86032 | -90.30804 | 43016 ft | 450 kts | 98° |
| 2026-04-25 20:03 | 42.85255 | -90.22316 | 43014 ft | 450 kts | 98° |
| 2026-04-25 20:03 | 42.84477 | -90.13905 | 43010 ft | 450 kts | 98° |
| 2026-04-25 20:04 | 42.83800 | -90.05443 | 43017 ft | 450 kts | 95° |
| 2026-04-25 20:04 | 42.83415 | -89.96909 | 43018 ft | 450 kts | 94° |
| 2026-04-25 20:05 | 42.83068 | -89.88425 | 43019 ft | 450 kts | 94° |
| 2026-04-25 20:05 | 42.82718 | -89.79960 | 43023 ft | 450 kts | 94° |
| 2026-04-25 20:06 | 42.82359 | -89.71438 | 43024 ft | 451 kts | 94° |
| 2026-04-25 20:06 | 42.81998 | -89.62987 | 43020 ft | 451 kts | 94° |
| 2026-04-25 20:07 | 42.81628 | -89.54497 | 43019 ft | 452 kts | 94° |
| 2026-04-25 20:07 | 42.81253 | -89.46021 | 43024 ft | 452 kts | 94° |
| 2026-04-25 20:08 | 42.80869 | -89.37508 | 43025 ft | 452 kts | 94° |
| 2026-04-25 20:08 | 42.80483 | -89.29052 | 43020 ft | 452 kts | 95° |
| 2026-04-25 20:09 | 42.80086 | -89.20551 | 43025 ft | 452 kts | 95° |
| 2026-04-25 20:09 | 42.79686 | -89.12096 | 43027 ft | 452 kts | 95° |
| 2026-04-25 20:10 | 42.79278 | -89.03577 | 43027 ft | 451 kts | 95° |
| 2026-04-25 20:10 | 42.78864 | -88.95104 | 43029 ft | 451 kts | 95° |
| 2026-04-25 20:11 | 42.78444 | -88.86619 | 43020 ft | 451 kts | 94° |
| 2026-04-25 20:11 | 42.78020 | -88.78168 | 43029 ft | 451 kts | 94° |
| 2026-04-25 20:12 | 42.77587 | -88.69672 | 43030 ft | 450 kts | 95° |
| 2026-04-25 20:12 | 42.77226 | -88.62701 | 43025 ft | 450 kts | 95° |
| 2026-04-25 20:13 | 42.76707 | -88.52792 | 43023 ft | 450 kts | 95° |
| 2026-04-25 20:13 | 42.76260 | -88.44412 | 43029 ft | 449 kts | 95° |
| 2026-04-25 20:14 | 42.75805 | -88.35951 | 43036 ft | 449 kts | 95° |
| 2026-04-25 20:14 | 42.75348 | -88.27595 | 43037 ft | 448 kts | 95° |
| 2026-04-25 20:15 | 42.74880 | -88.19165 | 43034 ft | 447 kts | 95° |
| 2026-04-25 20:15 | 42.74414 | -88.10875 | 43035 ft | 446 kts | 95° |
| 2026-04-25 20:16 | 42.73938 | -88.02499 | 43037 ft | 445 kts | 95° |
| 2026-04-25 20:16 | 42.73459 | -87.94222 | 43039 ft | 443 kts | 95° |
| 2026-04-25 20:17 | 42.72973 | -87.85857 | 43044 ft | 442 kts | 95° |
| 2026-04-25 20:17 | 42.72485 | -87.77613 | 43046 ft | 441 kts | 95° |
| 2026-04-25 20:18 | 42.71988 | -87.69300 | 43044 ft | 440 kts | 95° |
| 2026-04-25 20:18 | 42.71487 | -87.61025 | 43040 ft | 439 kts | 95° |
| 2026-04-25 20:19 | 42.70983 | -87.52814 | 43035 ft | 438 kts | 95° |
| 2026-04-25 20:19 | 42.70468 | -87.44544 | 43028 ft | 437 kts | 95° |
| 2026-04-25 20:20 | 42.69955 | -87.36340 | 43026 ft | 436 kts | 95° |
| 2026-04-25 20:20 | 42.69440 | -87.28218 | 43022 ft | 435 kts | 96° |
| 2026-04-25 20:21 | 42.68916 | -87.20052 | 43022 ft | 433 kts | 96° |
| 2026-04-25 20:21 | 42.68389 | -87.11936 | 43024 ft | 432 kts | 96° |
| 2026-04-25 20:22 | 42.67944 | -87.05145 | 43025 ft | 430 kts | 96° |
| 2026-04-25 20:22 | 42.67319 | -86.95715 | 43024 ft | 429 kts | 96° |
| 2026-04-25 20:23 | 42.66782 | -86.87712 | 43023 ft | 427 kts | 96° |
| 2026-04-25 20:23 | 42.66237 | -86.79665 | 43021 ft | 426 kts | 96° |
| 2026-04-25 20:24 | 42.65689 | -86.71666 | 43015 ft | 426 kts | 96° |
| 2026-04-25 20:24 | 42.65135 | -86.63648 | 43012 ft | 426 kts | 96° |
| 2026-04-25 20:25 | 42.64576 | -86.55675 | 43007 ft | 426 kts | 96° |
| 2026-04-25 20:25 | 42.64012 | -86.47662 | 43009 ft | 426 kts | 96° |
| 2026-04-25 20:26 | 42.63440 | -86.39644 | 43006 ft | 427 kts | 97° |
| 2026-04-25 20:26 | 42.62868 | -86.31678 | 42991 ft | 428 kts | 97° |
| 2026-04-25 20:27 | 42.62283 | -86.23672 | 42993 ft | 428 kts | 97° |
| 2026-04-25 20:27 | 42.61692 | -86.15622 | 42994 ft | 429 kts | 97° |
| 2026-04-25 20:28 | 42.61093 | -86.07549 | 42994 ft | 430 kts | 97° |
| 2026-04-25 20:28 | 42.60490 | -85.99477 | 42983 ft | 431 kts | 97° |
| 2026-04-25 20:29 | 42.59880 | -85.91427 | 42974 ft | 432 kts | 97° |
| 2026-04-25 20:29 | 42.59259 | -85.83260 | 42972 ft | 434 kts | 97° |
| 2026-04-25 20:30 | 42.58633 | -85.75143 | 42975 ft | 435 kts | 98° |
| 2026-04-25 20:30 | 42.57998 | -85.66991 | 42980 ft | 435 kts | 98° |
| 2026-04-25 20:31 | 42.57358 | -85.58834 | 42988 ft | 436 kts | 98° |
| 2026-04-25 20:31 | 42.56710 | -85.50650 | 42988 ft | 437 kts | 98° |
| 2026-04-25 20:32 | 42.56054 | -85.42448 | 42983 ft | 438 kts | 97° |
| 2026-04-25 20:32 | 42.55394 | -85.34255 | 42988 ft | 439 kts | 98° |
| 2026-04-25 20:33 | 42.54729 | -85.26073 | 42985 ft | 439 kts | 98° |
| 2026-04-25 20:33 | 42.54167 | -85.19213 | 42986 ft | 439 kts | 98° |
| 2026-04-25 20:34 | 42.53375 | -85.09647 | 42987 ft | 439 kts | 99° |
| 2026-04-25 20:34 | 42.52684 | -85.01405 | 42995 ft | 439 kts | 98° |
| 2026-04-25 20:35 | 42.51996 | -84.93240 | 42995 ft | 439 kts | 98° |
| 2026-04-25 20:35 | 42.51297 | -84.85022 | 42994 ft | 439 kts | 98° |
| 2026-04-25 20:36 | 42.50591 | -84.76811 | 43001 ft | 439 kts | 98° |
| 2026-04-25 20:36 | 42.49882 | -84.68584 | 42999 ft | 439 kts | 98° |
| 2026-04-25 20:37 | 42.49168 | -84.60406 | 42998 ft | 439 kts | 98° |
| 2026-04-25 20:37 | 42.48447 | -84.52213 | 42997 ft | 439 kts | 98° |
| 2026-04-25 20:38 | 42.47720 | -84.44002 | 42994 ft | 439 kts | 99° |
| 2026-04-25 20:38 | 42.46984 | -84.35805 | 43002 ft | 439 kts | 98° |
| 2026-04-25 20:39 | 42.46249 | -84.27643 | 42996 ft | 439 kts | 99° |
| 2026-04-25 20:39 | 42.45629 | -84.20835 | 42990 ft | 439 kts | 99° |
| 2026-04-25 20:40 | 42.44751 | -84.11252 | 42982 ft | 439 kts | 99° |
| 2026-04-25 20:40 | 42.44000 | -84.03110 | 42990 ft | 439 kts | 99° |
| 2026-04-25 20:41 | 42.43235 | -83.94881 | 42981 ft | 440 kts | 99° |
| 2026-04-25 20:41 | 42.42467 | -83.86694 | 42996 ft | 440 kts | 99° |
| 2026-04-25 20:42 | 42.41693 | -83.78523 | 42990 ft | 440 kts | 99° |
| 2026-04-25 20:42 | 42.40913 | -83.70329 | 42983 ft | 439 kts | 99° |
| 2026-04-25 20:43 | 42.40125 | -83.62131 | 42993 ft | 439 kts | 99° |
| 2026-04-25 20:43 | 42.39338 | -83.53994 | 42980 ft | 439 kts | 99° |
| 2026-04-25 20:44 | 42.38541 | -83.45837 | 42988 ft | 439 kts | 99° |
| 2026-04-25 20:44 | 42.37746 | -83.37730 | 42995 ft | 438 kts | 99° |
| 2026-04-25 20:45 | 42.36943 | -83.29615 | 42984 ft | 438 kts | 100° |
| 2026-04-25 20:45 | 42.36138 | -83.21549 | 42992 ft | 437 kts | 99° |
| 2026-04-25 20:46 | 42.35321 | -83.13405 | 42990 ft | 437 kts | 100° |
| 2026-04-25 20:46 | 42.34502 | -83.05322 | 42993 ft | 437 kts | 100° |
| 2026-04-25 20:47 | 42.33676 | -82.97224 | 42999 ft | 436 kts | 99° |
| 2026-04-25 20:47 | 42.32848 | -82.89154 | 42998 ft | 436 kts | 100° |
| 2026-04-25 20:48 | 42.32011 | -82.81059 | 42999 ft | 436 kts | 99° |
| 2026-04-25 20:48 | 42.31172 | -82.72980 | 42999 ft | 436 kts | 99° |
| 2026-04-25 20:49 | 42.30322 | -82.64863 | 42995 ft | 437 kts | 99° |
| 2026-04-25 20:49 | 42.29463 | -82.56747 | 42987 ft | 437 kts | 99° |
| 2026-04-25 20:50 | 42.28599 | -82.48609 | 42986 ft | 437 kts | 99° |
| 2026-04-25 20:50 | 42.27731 | -82.40505 | 42986 ft | 438 kts | 99° |
| 2026-04-25 20:51 | 42.26860 | -82.32406 | 42976 ft | 438 kts | 100° |
| 2026-04-25 20:51 | 42.25976 | -82.24270 | 42981 ft | 438 kts | 100° |
| 2026-04-25 20:52 | 42.25241 | -82.17536 | 42982 ft | 437 kts | 100° |
| 2026-04-25 20:52 | 42.24200 | -82.08074 | 42986 ft | 438 kts | 100° |
| 2026-04-25 20:53 | 42.23301 | -81.99948 | 42979 ft | 437 kts | 100° |
| 2026-04-25 20:53 | 42.22397 | -81.91836 | 42975 ft | 438 kts | 100° |
| 2026-04-25 20:54 | 42.21492 | -81.83768 | 42976 ft | 438 kts | 100° |
| 2026-04-25 20:54 | 42.20579 | -81.75674 | 42975 ft | 437 kts | 100° |
| 2026-04-25 20:55 | 42.19658 | -81.67577 | 42974 ft | 437 kts | 100° |
| 2026-04-25 20:55 | 42.18733 | -81.59491 | 42972 ft | 437 kts | 100° |
| 2026-04-25 20:56 | 42.17805 | -81.51414 | 42972 ft | 437 kts | 100° |
| 2026-04-25 20:56 | 42.16866 | -81.43310 | 42979 ft | 437 kts | 100° |
| 2026-04-25 20:57 | 42.15926 | -81.35255 | 42976 ft | 437 kts | 100° |
| 2026-04-25 20:57 | 42.14983 | -81.27219 | 42969 ft | 437 kts | 101° |
| 2026-04-25 20:58 | 42.14028 | -81.19125 | 42968 ft | 436 kts | 101° |
| 2026-04-25 20:58 | 42.13071 | -81.11066 | 42970 ft | 436 kts | 101° |
| 2026-04-25 20:59 | 42.12111 | -81.03045 | 42973 ft | 435 kts | 101° |
| 2026-04-25 20:59 | 42.11144 | -80.94997 | 42968 ft | 435 kts | 101° |
| 2026-04-25 21:00 | 42.10335 | -80.88290 | 42967 ft | 435 kts | 101° |
| 2026-04-25 21:01 | 42.08701 | -80.74898 | 42967 ft | 435 kts | 101° |
| 2026-04-25 21:01 | 42.07719 | -80.66896 | 42967 ft | 435 kts | 101° |
| 2026-04-25 21:02 | 42.06729 | -80.58894 | 42961 ft | 436 kts | 101° |
| 2026-04-25 21:02 | 42.05734 | -80.50885 | 42972 ft | 436 kts | 101° |
| 2026-04-25 21:03 | 42.04731 | -80.42860 | 42963 ft | 436 kts | 101° |
| 2026-04-25 21:03 | 42.03721 | -80.34832 | 42969 ft | 436 kts | 102° |
| 2026-04-25 21:04 | 42.02706 | -80.26821 | 42953 ft | 436 kts | 102° |
| 2026-04-25 21:04 | 42.01680 | -80.18752 | 42953 ft | 436 kts | 101° |
| 2026-04-25 21:05 | 42.00655 | -80.10750 | 42957 ft | 436 kts | 102° |
| 2026-04-25 21:05 | 41.99623 | -80.02737 | 42948 ft | 437 kts | 101° |
| 2026-04-25 21:06 | 41.98585 | -79.94694 | 42934 ft | 437 kts | 102° |
| 2026-04-25 21:06 | 41.97541 | -79.86692 | 42931 ft | 437 kts | 101° |
| 2026-04-25 21:07 | 41.96492 | -79.78676 | 42924 ft | 437 kts | 101° |
| 2026-04-25 21:07 | 41.95436 | -79.70663 | 42904 ft | 438 kts | 102° |
| 2026-04-25 21:08 | 41.94369 | -79.62589 | 42888 ft | 438 kts | 101° |
| 2026-04-25 21:08 | 41.93293 | -79.54527 | 42904 ft | 439 kts | 101° |
| 2026-04-25 21:09 | 41.91673 | -79.42439 | 42901 ft | 440 kts | 101° |
| 2026-04-25 21:09 | 41.90588 | -79.34402 | 42901 ft | 441 kts | 102° |
| 2026-04-25 21:10 | 41.89495 | -79.26354 | 42886 ft | 442 kts | 102° |
| 2026-04-25 21:10 | 41.88397 | -79.18301 | 42893 ft | 443 kts | 102° |
| 2026-04-25 21:11 | 41.87284 | -79.10187 | 42896 ft | 443 kts | 102° |
| 2026-04-25 21:11 | 41.86162 | -79.02058 | 42894 ft | 444 kts | 102° |
| 2026-04-25 21:12 | 41.85029 | -78.93889 | 42892 ft | 445 kts | 102° |
| 2026-04-25 21:12 | 41.84085 | -78.87128 | 42886 ft | 446 kts | 102° |
| 2026-04-25 21:13 | 41.82752 | -78.77629 | 42890 ft | 447 kts | 102° |
| 2026-04-25 21:13 | 41.81599 | -78.69447 | 42902 ft | 448 kts | 102° |
| 2026-04-25 21:14 | 41.80434 | -78.61231 | 42897 ft | 449 kts | 102° |
| 2026-04-25 21:14 | 41.79265 | -78.53020 | 42887 ft | 451 kts | 102° |
| 2026-04-25 21:15 | 41.78081 | -78.44775 | 42884 ft | 452 kts | 102° |
| 2026-04-25 21:15 | 41.76890 | -78.36512 | 42879 ft | 454 kts | 102° |
| 2026-04-25 21:16 | 41.75697 | -78.28268 | 42873 ft | 455 kts | 102° |
| 2026-04-25 21:16 | 41.74488 | -78.19968 | 42878 ft | 455 kts | 102° |
| 2026-04-25 21:17 | 41.73271 | -78.11651 | 42866 ft | 456 kts | 102° |
| 2026-04-25 21:17 | 41.72039 | -78.03305 | 42872 ft | 457 kts | 102° |
| 2026-04-25 21:18 | 41.70811 | -77.95003 | 42871 ft | 458 kts | 102° |
| 2026-04-25 21:18 | 41.69570 | -77.86644 | 42879 ft | 459 kts | 102° |
| 2026-04-25 21:19 | 41.68314 | -77.78252 | 42875 ft | 460 kts | 103° |
| 2026-04-25 21:19 | 41.67063 | -77.69928 | 42893 ft | 461 kts | 102° |
| 2026-04-25 21:20 | 41.66003 | -77.62915 | 42880 ft | 462 kts | 102° |
| 2026-04-25 21:20 | 41.64511 | -77.53076 | 42895 ft | 463 kts | 102° |
| 2026-04-25 21:21 | 41.63229 | -77.44688 | 42895 ft | 464 kts | 102° |
| 2026-04-25 21:21 | 41.61935 | -77.36256 | 42901 ft | 465 kts | 102° |
| 2026-04-25 21:22 | 41.60638 | -77.27838 | 42914 ft | 465 kts | 103° |
| 2026-04-25 21:22 | 41.59329 | -77.19402 | 42898 ft | 466 kts | 103° |
| 2026-04-25 21:23 | 41.58009 | -77.10936 | 42907 ft | 466 kts | 103° |
| 2026-04-25 21:23 | 41.56692 | -77.02534 | 42911 ft | 456 kts | 103° |
| 2026-04-25 21:24 | 41.55400 | -76.94308 | 42912 ft | 456 kts | 103° |
| 2026-04-25 21:24 | 41.54090 | -76.86034 | 42923 ft | 457 kts | 103° |
| 2026-04-25 21:25 | 41.52764 | -76.77711 | 42859 ft | 460 kts | 103° |
| 2026-04-25 21:25 | 41.52103 | -76.73546 | 42377 ft | 464 kts | 103° |
| 2026-04-25 21:25 | 41.51436 | -76.69357 | 41885 ft | 459 kts | 103° |
| 2026-04-25 21:26 | 41.50774 | -76.65237 | 41399 ft | 454 kts | 103° |
| 2026-04-25 21:26 | 41.50118 | -76.61150 | 40917 ft | 449 kts | 104° |
| 2026-04-25 21:26 | 41.49465 | -76.57101 | 40436 ft | 445 kts | 104° |
| 2026-04-25 21:26 | 41.48830 | -76.53153 | 39930 ft | 440 kts | 104° |
| 2026-04-25 21:27 | 41.48183 | -76.49177 | 39355 ft | 434 kts | 104° |
| 2026-04-25 21:27 | 41.47549 | -76.45254 | 38800 ft | 427 kts | 105° |
| 2026-04-25 21:27 | 41.46928 | -76.41457 | 38293 ft | 419 kts | 105° |
| 2026-04-25 21:27 | 41.46322 | -76.37735 | 37819 ft | 412 kts | 105° |
| 2026-04-25 21:28 | 41.45727 | -76.34072 | 37352 ft | 404 kts | 106° |
| 2026-04-25 21:28 | 41.45145 | -76.30521 | 36905 ft | 397 kts | 106° |
| 2026-04-25 21:28 | 41.44564 | -76.26984 | 36482 ft | 389 kts | 107° |
| 2026-04-25 21:28 | 41.43988 | -76.23488 | 36104 ft | 383 kts | 106° |
| 2026-04-25 21:29 | 41.43424 | -76.20052 | 35732 ft | 378 kts | 107° |
| 2026-04-25 21:29 | 41.42860 | -76.16653 | 35354 ft | 374 kts | 107° |
| 2026-04-25 21:29 | 41.42312 | -76.13332 | 34983 ft | 370 kts | 107° |
| 2026-04-25 21:29 | 41.41763 | -76.10013 | 34600 ft | 367 kts | 107° |
| 2026-04-25 21:30 | 41.41219 | -76.06730 | 34218 ft | 364 kts | 108° |
| 2026-04-25 21:30 | 41.40674 | -76.03458 | 33804 ft | 361 kts | 108° |
| 2026-04-25 21:30 | 41.40139 | -76.00273 | 33414 ft | 358 kts | 108° |
| 2026-04-25 21:30 | 41.39780 | -75.98119 | 33150 ft | 357 kts | 107° |
| 2026-04-25 21:31 | 41.39072 | -75.93863 | 32643 ft | 361 kts | 107° |
| 2026-04-25 21:31 | 41.38518 | -75.90593 | 32250 ft | 363 kts | 107° |
| 2026-04-25 21:31 | 41.37974 | -75.87350 | 31860 ft | 365 kts | 107° |
| 2026-04-25 21:31 | 41.37420 | -75.84058 | 31459 ft | 367 kts | 107° |
| 2026-04-25 21:32 | 41.36869 | -75.80759 | 31064 ft | 369 kts | 107° |
| 2026-04-25 21:32 | 41.36306 | -75.77440 | 30662 ft | 371 kts | 107° |
| 2026-04-25 21:32 | 41.35738 | -75.74090 | 30210 ft | 373 kts | 107° |
| 2026-04-25 21:32 | 41.35171 | -75.70731 | 29771 ft | 375 kts | 106° |
| 2026-04-25 21:33 | 41.34602 | -75.67381 | 29363 ft | 376 kts | 106° |
| 2026-04-25 21:33 | 41.34022 | -75.63980 | 28946 ft | 376 kts | 105° |
| 2026-04-25 21:33 | 41.33442 | -75.60586 | 28530 ft | 377 kts | 106° |
| 2026-04-25 21:33 | 41.32869 | -75.57206 | 28113 ft | 377 kts | 105° |
| 2026-04-25 21:34 | 41.32287 | -75.53818 | 27693 ft | 377 kts | 105° |
| 2026-04-25 21:34 | 41.31705 | -75.50422 | 27281 ft | 376 kts | 104° |
| 2026-04-25 21:34 | 41.31135 | -75.47089 | 26863 ft | 375 kts | 105° |
| 2026-04-25 21:34 | 41.30557 | -75.43726 | 26443 ft | 374 kts | 104° |
| 2026-04-25 21:35 | 41.29977 | -75.40354 | 26032 ft | 373 kts | 104° |
| 2026-04-25 21:35 | 41.29392 | -75.36982 | 25614 ft | 372 kts | 104° |
| 2026-04-25 21:35 | 41.28835 | -75.33742 | 25212 ft | 370 kts | 104° |
| 2026-04-25 21:35 | 41.28277 | -75.30532 | 24813 ft | 368 kts | 104° |
| 2026-04-25 21:36 | 41.27707 | -75.27248 | 24422 ft | 366 kts | 104° |
| 2026-04-25 21:36 | 41.27145 | -75.24010 | 24031 ft | 364 kts | 104° |
| 2026-04-25 21:36 | 41.26580 | -75.20773 | 23639 ft | 362 kts | 103° |
| 2026-04-25 21:36 | 41.26020 | -75.17572 | 23246 ft | 360 kts | 103° |
| 2026-04-25 21:37 | 41.25461 | -75.14356 | 22856 ft | 357 kts | 103° |
| 2026-04-25 21:37 | 41.25087 | -75.12219 | 22598 ft | 356 kts | 103° |
| 2026-04-25 21:37 | 41.24343 | -75.07967 | 22077 ft | 352 kts | 103° |
| 2026-04-25 21:37 | 41.23801 | -75.04870 | 21703 ft | 350 kts | 104° |
| 2026-04-25 21:38 | 41.23254 | -75.01774 | 21341 ft | 348 kts | 103° |
| 2026-04-25 21:38 | 41.22718 | -74.98735 | 20968 ft | 346 kts | 103° |
| 2026-04-25 21:38 | 41.22168 | -74.95621 | 20583 ft | 344 kts | 103° |
| 2026-04-25 21:38 | 41.21630 | -74.92577 | 20218 ft | 341 kts | 103° |
| 2026-04-25 21:39 | 41.21099 | -74.89575 | 19850 ft | 339 kts | 103° |
| 2026-04-25 21:39 | 41.20567 | -74.86585 | 19483 ft | 338 kts | 103° |
| 2026-04-25 21:39 | 41.20031 | -74.83557 | 19106 ft | 336 kts | 103° |
| 2026-04-25 21:39 | 41.19497 | -74.80560 | 18744 ft | 334 kts | 103° |
| 2026-04-25 21:40 | 41.18968 | -74.77590 | 18374 ft | 332 kts | 103° |
| 2026-04-25 21:40 | 41.18447 | -74.74672 | 18012 ft | 330 kts | 103° |
| 2026-04-25 21:40 | 41.17919 | -74.71722 | 17652 ft | 328 kts | 103° |
| 2026-04-25 21:40 | 41.17399 | -74.68819 | 17310 ft | 326 kts | 103° |
| 2026-04-25 21:41 | 41.16882 | -74.65936 | 16949 ft | 324 kts | 103° |
| 2026-04-25 21:41 | 41.16370 | -74.63092 | 16600 ft | 323 kts | 103° |
| 2026-04-25 21:41 | 41.15849 | -74.60207 | 16260 ft | 321 kts | 104° |
| 2026-04-25 21:41 | 41.15350 | -74.57426 | 15917 ft | 319 kts | 104° |
| 2026-04-25 21:42 | 41.14836 | -74.54572 | 15572 ft | 318 kts | 104° |
| 2026-04-25 21:42 | 41.14321 | -74.51746 | 15217 ft | 316 kts | 103° |
| 2026-04-25 21:42 | 41.13819 | -74.48962 | 14867 ft | 315 kts | 103° |
| 2026-04-25 21:42 | 41.13320 | -74.46207 | 14549 ft | 313 kts | 104° |
| 2026-04-25 21:43 | 41.12816 | -74.43420 | 14192 ft | 312 kts | 103° |
| 2026-04-25 21:43 | 41.12307 | -74.40627 | 13846 ft | 310 kts | 104° |
| 2026-04-25 21:43 | 41.11805 | -74.37870 | 13507 ft | 308 kts | 104° |
| 2026-04-25 21:43 | 41.11307 | -74.35140 | 13166 ft | 306 kts | 104° |
| 2026-04-25 21:44 | 41.10820 | -74.32474 | 12842 ft | 305 kts | 105° |
| 2026-04-25 21:44 | 41.10322 | -74.29754 | 12504 ft | 303 kts | 105° |
| 2026-04-25 21:44 | 41.09333 | -74.24354 | 11828 ft | 299 kts | 106° |
| 2026-04-25 21:45 | 41.08850 | -74.21738 | 11495 ft | 297 kts | 106° |
| 2026-04-25 21:45 | 41.08526 | -74.19959 | 11267 ft | 295 kts | 105° |
| 2026-04-25 21:45 | 41.07880 | -74.16461 | 10849 ft | 292 kts | 105° |
| 2026-04-25 21:45 | 41.07404 | -74.13889 | 10533 ft | 290 kts | 106° |
| 2026-04-25 21:46 | 41.06932 | -74.11323 | 10217 ft | 287 kts | 107° |
| 2026-04-25 21:46 | 41.06473 | -74.08836 | 9913 ft | 285 kts | 105° |
| 2026-04-25 21:46 | 41.06012 | -74.06358 | 9609 ft | 283 kts | 106° |
| 2026-04-25 21:46 | 41.05544 | -74.03829 | 9298 ft | 281 kts | 106° |
| 2026-04-25 21:47 | 41.05088 | -74.01376 | 8991 ft | 279 kts | 107° |
| 2026-04-25 21:47 | 41.04642 | -73.98985 | 8694 ft | 276 kts | 107° |
| 2026-04-25 21:47 | 41.04187 | -73.96538 | 8391 ft | 274 kts | 107° |
| 2026-04-25 21:47 | 41.03744 | -73.94157 | 8086 ft | 272 kts | 107° |
| 2026-04-25 21:48 | 41.03299 | -73.91788 | 7788 ft | 269 kts | 107° |
| 2026-04-25 21:48 | 41.02861 | -73.89436 | 7493 ft | 266 kts | 105° |
| 2026-04-25 21:48 | 41.02421 | -73.87086 | 7198 ft | 264 kts | 107° |
| 2026-04-25 21:48 | 41.01987 | -73.84766 | 6904 ft | 261 kts | 106° |
| 2026-04-25 21:49 | 41.01554 | -73.82447 | 6608 ft | 259 kts | 107° |
| 2026-04-25 21:49 | 41.01119 | -73.80150 | 6332 ft | 255 kts | 107° |
| 2026-04-25 21:49 | 41.00700 | -73.77918 | 6041 ft | 246 kts | 105° |
| 2026-04-25 21:49 | 41.00294 | -73.75773 | 5760 ft | 237 kts | 106° |
| 2026-04-25 21:50 | 40.99907 | -73.73691 | 5509 ft | 230 kts | 106° |
| 2026-04-25 21:50 | 40.99523 | -73.71670 | 5253 ft | 225 kts | 106° |
| 2026-04-25 21:50 | 40.99146 | -73.69684 | 5007 ft | 220 kts | 105° |
| 2026-04-25 21:50 | 40.98903 | -73.68396 | 4847 ft | 216 kts | 105° |
| 2026-04-25 21:51 | 40.98425 | -73.65858 | 4531 ft | 210 kts | 105° |
| 2026-04-25 21:51 | 40.98075 | -73.64010 | 4301 ft | 206 kts | 105° |
| 2026-04-25 21:51 | 40.97615 | -73.62249 | 4064 ft | 202 kts | 126° |
| 2026-04-25 21:51 | 40.96458 | -73.61276 | 3834 ft | 202 kts | 167° |
| 2026-04-25 21:52 | 40.95075 | -73.60957 | 3605 ft | 201 kts | 166° |
| 2026-04-25 21:52 | 40.93682 | -73.60591 | 3363 ft | 206 kts | 167° |
| 2026-04-25 21:52 | 40.92247 | -73.60223 | 3124 ft | 211 kts | 167° |
| 2026-04-25 21:52 | 40.90820 | -73.59861 | 2883 ft | 213 kts | 167° |
| 2026-04-25 21:53 | 40.89381 | -73.59497 | 2645 ft | 214 kts | 166° |
| 2026-04-25 21:53 | 40.87990 | -73.59146 | 2416 ft | 215 kts | 166° |
| 2026-04-25 21:53 | 40.86533 | -73.58778 | 2175 ft | 215 kts | 166° |
| 2026-04-25 21:53 | 40.85070 | -73.58401 | 2016 ft | 209 kts | 162° |
| 2026-04-25 21:54 | 40.83966 | -73.57445 | 1980 ft | 172 kts | 128° |
| 2026-04-25 21:54 | 40.83246 | -73.56367 | 1994 ft | 140 kts | 131° |
| 2026-04-25 21:54 | 40.82666 | -73.55534 | 1986 ft | 114 kts | 130° |
| 2026-04-25 21:54 | 40.82180 | -73.54829 | 1956 ft | 95 kts | 130° |
| 2026-04-25 21:55 | 40.81715 | -73.54150 | 2013 ft | 105 kts | 130° |
| 2026-04-25 21:55 | 40.81212 | -73.53419 | 1997 ft | 105 kts | 130° |
| 2026-04-25 21:55 | 40.80722 | -73.52707 | 1989 ft | 103 kts | 129° |
| 2026-04-25 21:55 | 40.80224 | -73.51982 | 2008 ft | 106 kts | 129° |
| 2026-04-25 21:56 | 40.79714 | -73.51244 | 1893 ft | 112 kts | 130° |
| 2026-04-25 21:56 | 40.79364 | -73.50739 | 1808 ft | 113 kts | 130° |
| 2026-04-25 21:56 | 40.78662 | -73.49721 | 1611 ft | 109 kts | 130° |
| 2026-04-25 21:56 | 40.78161 | -73.48993 | 1469 ft | 107 kts | 130° |
| 2026-04-25 21:57 | 40.77671 | -73.48280 | 1331 ft | 106 kts | 130° |
| 2026-04-25 21:57 | 40.77157 | -73.47533 | 1200 ft | 111 kts | 130° |
| 2026-04-25 21:57 | 40.76636 | -73.46775 | 1055 ft | 111 kts | 130° |
| 2026-04-25 21:57 | 40.76126 | -73.46035 | 902 ft | 108 kts | 130° |
| 2026-04-25 21:58 | 40.75632 | -73.45319 | 755 ft | 105 kts | 129° |
| 2026-04-25 21:58 | 40.75147 | -73.44616 | 616 ft | 103 kts | 130° |
| 2026-04-25 21:58 | 40.74668 | -73.43921 | 480 ft | 110 kts | 130° |
| 2026-04-25 21:58 | 40.74147 | -73.43163 | 396 ft | 110 kts | 130° |
| 2026-04-25 21:59 | 40.73636 | -73.42437 | 218 ft | 108 kts | 130° |
| 2026-04-25 21:59 | 40.73147 | -73.41715 | 74 ft | 101 kts | 130° |
| 2026-04-25 21:59 | 40.72726 | -73.41102 | 64 ft | 70 kts | 133° |
| 2026-04-25 22:00 | 40.72366 | -73.40588 | 58 ft | 34 kts | 131° |
| 2026-04-25 22:00 | 40.72277 | -73.40459 | 56 ft | 11 kts | 139° |
| 2026-04-25 22:00 | 40.72212 | -73.40494 | 56 ft | 11 kts | 220° |
| 2026-04-25 22:00 | 40.72201 | -73.40562 | 57 ft | 8 kts | 314° |
| 2026-04-25 22:01 | 40.72243 | -73.40620 | 58 ft | 8 kts | 311° |
| 2026-04-25 22:01 | 40.72290 | -73.40688 | 58 ft | 15 kts | 313° |
| 2026-04-25 22:01 | 40.72369 | -73.40801 | 59 ft | 17 kts | 312° |
| 2026-04-25 22:01 | 40.72422 | -73.40881 | 59 ft | 17 kts | 311° |
| 2026-04-25 22:02 | 40.72536 | -73.41044 | 61 ft | 17 kts | 312° |
| 2026-04-25 22:02 | 40.72613 | -73.41157 | 63 ft | 14 kts | 309° |
| 2026-04-25 22:02 | 40.72682 | -73.41254 | 64 ft | 13 kts | 314° |
| 2026-04-25 22:02 | 40.72721 | -73.41361 | 66 ft | 13 kts | 275° |
| 2026-04-25 22:03 | 40.72722 | -73.41485 | 66 ft | 14 kts | 269° |
| 2026-04-25 22:03 | 40.72783 | -73.41544 | 67 ft | 13 kts | 359° |
| 2026-04-25 22:03 | 40.72878 | -73.41550 | 67 ft | 13 kts | 336° |
| 2026-04-25 22:03 | 40.72944 | -73.41636 | 69 ft | 13 kts | 312° |
| 2026-04-25 22:04 | 40.72951 | -73.41695 | 69 ft | 7 kts | 224° |
| 2026-04-25 22:04 | 40.72912 | -73.41744 | 69 ft | 8 kts | 221° |
| 2026-04-25 22:04 | 40.72903 | -73.41753 | 69 ft | 0 kts | 221° |